30 juin 2022

Temps Code Temps Temp. Vue Base cloud Vent METAR/SPECI
11:50 pm
V
64 °F 6¼ mi+ - 260° 260° 13 kt METAR EDWE 302150Z AUTO 26013KT 9999 // ///////// 18/17 Q1010
11:20 pm
V
63 °F 5⅝ mi - 240° 240° 7 kt METAR EDWE 302120Z AUTO 24007KT 9000 // ///////// 17/17 Q1011
10:50 pm
V
68 °F 6¼ mi+ - 210° 210° 25 - 51 kt METAR EDWE 302050Z AUTO 21025G51KT 9999 // ///////// 20/16 Q1010
10:20 pm
V
70 °F 6¼ mi+ - 040° 040° 5 kt METAR EDWE 302020Z AUTO 04005KT 9999 // ///////// 21/18 Q1008
9:50 pm
V
72 °F 6¼ mi+ - 040° 040° 5 kt METAR EDWE 301950Z AUTO 04005KT 9999 // ///////// 22/18 Q1009
9:20 pm
V
73 °F 6¼ mi+ - 050° 050° 7 kt METAR EDWE 301920Z AUTO 05007KT 9999 // ///////// 23/18 Q1008
8:50 pm
V
75 °F 6¼ mi+ - 050° 050° 8 kt METAR EDWE 301850Z AUTO 05008KT 9999 // ///////// 24/18 Q1008
8:20 pm
V
77 °F 6¼ mi+ - 050° 050° 7 kt METAR EDWE 301820Z AUTO 05007KT 9999 // ///////// 25/18 Q1008
7:50 pm
V
79 °F 6¼ mi+ - 050° 050° 10 kt METAR EDWE 301750Z AUTO 05010KT 9999 // ///////// 26/18 Q1008
7:20 pm
V
79 °F 6¼ mi+ - 030° 030° 5 kt METAR EDWE 301720Z AUTO 03005KT 350V060 9999 // ///////// 26/19 Q1009
6:50 pm
V
75 °F 6¼ mi+ - 360° 360° 4 kt METAR EDWE 301650Z AUTO 36004KT 330V030 9999 // ///////// 24/19 Q1009
6:20 pm
V
73 °F 6¼ mi+ - 020° 020° 3 kt METAR EDWE 301620Z AUTO 02003KT 340V050 9999 // ///////// 23/20 Q1009
5:50 pm
V
72 °F 6¼ mi+ 4.000 ft 290° 290° 6 kt METAR EDWE 301550Z 29006KT 9999 -DZ SCT030 BKN040CB 22/19 Q1010 RERA
5:20 pm
V
72 °F 6¼ mi+ 4.800 ft 260° 260° 7 kt METAR EDWE 301520Z 26007KT 230V290 9999 -RA VCTS SCT036 SCT040 BKN048CB 22/18 Q1011
4:50 pm
V
75 °F 6¼ mi+ - 320° 320° 7 kt METAR EDWE 301450Z 32007KT 9999 SCT040 SCT048CB 24/18 Q1010
4:20 pm
V
77 °F 6¼ mi+ - 290° 290° 10 kt METAR EDWE 301420Z 29010KT 9999 SCT030 SCT044TCU 25/18 Q1010
3:50 pm
V
81 °F 6¼ mi+ - 080° 080° 4 kt METAR EDWE 301350Z 08004KT 040V130 9999 SCT040 SCT049TCU 27/16 Q1010
3:20 pm
V
82 °F 6¼ mi+ - Var Var 2 kt METAR EDWE 301320Z VRB02KT 9999 SCT040 SCT048TCU 28/15 Q1010
2:50 pm
V
82 °F 6¼ mi+ 4.800 ft 150° 150° 4 kt METAR EDWE 301250Z 15004KT 110V250 9999 BKN048TCU 28/16 Q1011
2:20 pm
V
81 °F 6¼ mi+ - 120° 120° 4 kt METAR EDWE 301220Z 12004KT 050V170 9999 SCT044TCU 27/16 Q1011
1:50 pm
V
81 °F 6¼ mi+ - 120° 120° 6 kt METAR EDWE 301150Z 12006KT 090V160 9999 FEW036 27/16 Q1011
12:50 pm
V
79 °F 6¼ mi+ - 130° 130° 7 kt METAR EDWE 301050Z 13007KT 090V160 9999 FEW040 26/16 Q1011
12:20 pm
V
79 °F 6¼ mi+ - 120° 120° 8 kt METAR EDWE 301020Z 12008KT 080V160 9999 CAVOK 26/16 Q1011
11:50 am
V
79 °F 6¼ mi+ - 110° 110° 9 kt METAR EDWE 300950Z 11009KT 080V150 9999 FEW048 26/16 Q1011
11:20 am
V
77 °F 6¼ mi+ - 110° 110° 9 kt METAR EDWE 300920Z 11009KT 080V150 9999 CAVOK 25/16 Q1011
10:50 am
V
77 °F 6¼ mi+ - 110° 110° 10 kt METAR EDWE 300850Z 11010KT 090V150 9999 CAVOK 25/16 Q1011
10:20 am
V
75 °F 6¼ mi+ - 110° 110° 8 kt METAR EDWE 300820Z 11008KT 080V140 9999 FEW034 24/16 Q1011
9:50 am
V
73 °F 6¼ mi+ - 110° 110° 11 kt METAR EDWE 300750Z 11011KT 9999 FEW042 23/14 Q1011
9:20 am
V
73 °F 6¼ mi+ - 110° 110° 9 kt METAR EDWE 300720Z 11009KT 9999 FEW040 23/13 Q1011
8:50 am
V
72 °F 6¼ mi+ - 110° 110° 8 kt METAR EDWE 300650Z 11008KT 9999 FEW036 22/14 Q1012
8:20 am
V
68 °F 6¼ mi+ - 110° 110° 7 kt METAR EDWE 300620Z 11007KT 9999 SCT032 20/13 Q1012
7:50 am
V
68 °F 6¼ mi+ - 100° 100° 6 kt METAR EDWE 300550Z 10006KT 9999 SCT025 20/14 Q1012
7:20 am
V
66 °F 6¼ mi+ - 100° 100° 6 kt METAR EDWE 300520Z AUTO 10006KT 9999 // ///////// 19/13 Q1012
6:50 am
V
64 °F 6¼ mi+ - 100° 100° 5 kt METAR EDWE 300450Z AUTO 10005KT 070V130 9999 // ///////// 18/13 Q1012
6:20 am
V
63 °F 6¼ mi+ - 110° 110° 6 kt METAR EDWE 300420Z AUTO 11006KT 080V140 9999 // ///////// 17/13 Q1012
5:50 am
V
64 °F 6¼ mi+ - 110° 110° 5 kt METAR EDWE 300350Z AUTO 11005KT 9999 // ///////// 18/12 Q1012
5:20 am
V
64 °F 6¼ mi+ - 100° 100° 6 kt METAR EDWE 300320Z AUTO 10006KT 9999 // ///////// 18/12 Q1012
4:50 am
V
63 °F 6¼ mi+ - 100° 100° 5 kt METAR EDWE 300250Z AUTO 10005KT 9999 // ///////// 17/13 Q1012
4:20 am
V
63 °F 6¼ mi+ - 110° 110° 6 kt METAR EDWE 300220Z AUTO 11006KT 9999 // ///////// 17/12 Q1012
3:50 am
V
63 °F 6¼ mi+ - 090° 090° 6 kt METAR EDWE 300150Z AUTO 09006KT 9999 // ///////// 17/13 Q1012
3:20 am
V
63 °F 6¼ mi+ - 120° 120° 3 kt METAR EDWE 300120Z AUTO 12003KT 090V150 9999 // ///////// 17/13 Q1013
2:50 am
V
63 °F 6¼ mi+ - 100° 100° 4 kt METAR EDWE 300050Z AUTO 10004KT 9999 // ///////// 17/13 Q1013
2:20 am
V
63 °F 6¼ mi+ - 090° 090° 4 kt METAR EDWE 300020Z AUTO 09004KT 9999 // ///////// 17/13 Q1013
1:50 am
V
63 °F 6¼ mi+ - 090° 090° 4 kt METAR EDWE 292350Z AUTO 09004KT 9999 // ///////// 17/13 Q1013
1:20 am
V
64 °F 6¼ mi+ - 120° 120° 3 kt METAR EDWE 292320Z AUTO 12003KT 090V150 9999 // ///////// 18/13 Q1013
12:50 am
V
66 °F 6¼ mi+ - 120° 120° 4 kt METAR EDWE 292250Z AUTO 12004KT 090V160 9999 // ///////// 19/14 Q1013
12:20 am
V
68 °F 6¼ mi+ - 120° 120° 3 kt METAR EDWE 292220Z AUTO 12003KT 090V150 9999 // ///////// 20/15 Q1013

29 juin 2022

Temps Code Temps Temp. Vue Base cloud Vent METAR/SPECI
11:50 pm
V
68 °F 6¼ mi+ - Var Var 2 kt METAR EDWE 292150Z AUTO VRB02KT 9999 // ///////// 20/16 Q1013
11:20 pm
V
68 °F 6¼ mi+ - 100° 100° 3 kt METAR EDWE 292120Z AUTO 10003KT 9999 // ///////// 20/16 Q1013
10:50 pm
V
70 °F 6¼ mi+ - 090° 090° 4 kt METAR EDWE 292050Z AUTO 09004KT 9999 // ///////// 21/17 Q1012
10:20 pm
V
73 °F 6¼ mi+ - Var Var 2 kt METAR EDWE 292020Z AUTO VRB02KT 9999 // ///////// 23/18 Q1013
9:50 pm
V
73 °F 6¼ mi+ - 080° 080° 4 kt METAR EDWE 291950Z AUTO 08004KT 9999 // ///////// 23/18 Q1012
9:20 pm
V
75 °F 6¼ mi+ - 090° 090° 3 kt METAR EDWE 291920Z AUTO 09003KT 9999 // ///////// 24/18 Q1012
8:50 pm
V
77 °F 6¼ mi+ - 110° 110° 3 kt METAR EDWE 291850Z AUTO 11003KT 090V160 9999 // ///////// 25/17 Q1012
8:20 pm
V
79 °F 6¼ mi+ - 180° 180° 4 kt METAR EDWE 291820Z 18004KT 140V210 9999 SCT036TCU 26/15 Q1012
7:50 pm
V
79 °F 6¼ mi+ 4.200 ft 140° 140° 5 kt METAR EDWE 291750Z 14005KT 120V180 9999 BKN042 26/16 Q1012
7:20 pm
V
79 °F 6¼ mi+ 4.000 ft 150° 150° 4 kt METAR EDWE 291720Z 15004KT 110V190 9999 BKN040 26/16 Q1012
6:50 pm
V
79 °F 6¼ mi+ 4.400 ft 160° 160° 5 kt METAR EDWE 291650Z 16005KT 100V200 9999 BKN044 26/16 Q1013
6:20 pm
V
79 °F 6¼ mi+ - 180° 180° 6 kt METAR EDWE 291620Z 18006KT 120V210 9999 SCT040 26/15 Q1013
5:50 pm
V
81 °F 6¼ mi+ - 140° 140° 8 kt METAR EDWE 291550Z 14008KT 100V160 9999 SCT044 27/15 Q1013
5:20 pm
V
79 °F 6¼ mi+ - 160° 160° 6 kt METAR EDWE 291520Z 16006KT 130V200 9999 SCT044 26/15 Q1013
4:50 pm
V
79 °F 6¼ mi+ - 130° 130° 7 kt METAR EDWE 291450Z 13007KT 100V160 9999 CAVOK 26/16 Q1013
4:20 pm
V
79 °F 6¼ mi+ - 120° 120° 7 kt METAR EDWE 291420Z 12007KT 090V150 9999 SCT044 26/15 Q1013
3:50 pm
V
81 °F 6¼ mi+ - 140° 140° 8 kt METAR EDWE 291350Z 14008KT 090V190 9999 CAVOK 27/14 Q1013
1:50 pm
V
81 °F 6¼ mi+ - 100° 100° 10 kt METAR EDWE 291150Z 10010KT 9999 CAVOK 27/11 Q1014
1:20 pm
V
79 °F 6¼ mi+ - 120° 120° 8 kt METAR EDWE 291120Z 12008KT 090V160 9999 CAVOK 26/11 Q1014
12:50 pm
V
79 °F 6¼ mi+ - 110° 110° 9 kt METAR EDWE 291050Z 11009KT 080V150 9999 CAVOK 26/12 Q1015
12:20 pm
V
79 °F 6¼ mi+ - 130° 130° 9 kt METAR EDWE 291020Z 13009KT 9999 CAVOK 26/12 Q1015
6:20 am
V
57 °F 6¼ mi+ - 070° 070° 2 kt METAR EDWE 290420Z AUTO 07002KT 9999 // ///////// 14/13 Q1017
5:50 am
V
55 °F 6¼ mi+ - 060° 060° 2 kt METAR EDWE 290350Z AUTO 06002KT 9999 // ///////// 13/12 Q1017
5:20 am
M
54 °F 3¾ mi - 090° 090° 3 kt METAR EDWE 290320Z AUTO 09003KT 6000 // ///////// 12/11 Q1017
4:50 am
M
54 °F 3¾ mi - 090° 090° 2 kt METAR EDWE 290250Z AUTO 09002KT 6000 // ///////// 12/11 Q1017
4:20 am
V
55 °F 6¼ mi+ - Var Var 1 kt METAR EDWE 290220Z AUTO VRB01KT 9999 // ///////// 13/12 Q1017
3:50 am
V
55 °F 6¼ mi+ - 070° 070° 2 kt METAR EDWE 290150Z AUTO 07002KT 9999 // ///////// 13/12 Q1017
3:20 am
V
55 °F 6¼ mi+ - 060° 060° 4 kt METAR EDWE 290120Z AUTO 06004KT 9999 // ///////// 13/12 Q1018
2:50 am
V
57 °F 6¼ mi+ - 070° 070° 5 kt METAR EDWE 290050Z AUTO 07005KT 9999 // ///////// 14/13 Q1018
2:20 am
V
55 °F 6¼ mi+ - 070° 070° 4 kt METAR EDWE 290020Z AUTO 07004KT 9999 // ///////// 13/12 Q1018
1:50 am
V
59 °F 6¼ mi+ - 070° 070° 5 kt METAR EDWE 282350Z AUTO 07005KT 9999 // ///////// 15/13 Q1018
1:20 am
V
57 °F 6¼ mi+ - 080° 080° 4 kt METAR EDWE 282320Z AUTO 08004KT 9999 // ///////// 14/13 Q1019
12:50 am
V
59 °F 6¼ mi+ - 070° 070° 4 kt METAR EDWE 282250Z AUTO 07004KT 9999 // ///////// 15/13 Q1019
12:20 am
V
59 °F 6¼ mi+ - 070° 070° 5 kt METAR EDWE 282220Z AUTO 07005KT 9999 // ///////// 15/13 Q1019

28 juin 2022

Temps Code Temps Temp. Vue Base cloud Vent METAR/SPECI
11:50 pm
V
59 °F 6¼ mi+ - 070° 070° 5 kt METAR EDWE 282150Z AUTO 07005KT 9999 // ///////// 15/13 Q1019
11:20 pm
V
59 °F 6¼ mi+ - 070° 070° 4 kt METAR EDWE 282120Z AUTO 07004KT 9999 // ///////// 15/13 Q1019
10:50 pm
V
61 °F 6¼ mi+ - 060° 060° 6 kt METAR EDWE 282050Z AUTO 06006KT 9999 // ///////// 16/13 Q1019
10:20 pm
V
61 °F 6¼ mi+ - 050° 050° 7 kt METAR EDWE 282020Z AUTO 05007KT 9999 // ///////// 16/14 Q1019
9:50 pm
V
64 °F 6¼ mi+ - 060° 060° 8 kt METAR EDWE 281950Z AUTO 06008KT 9999 // ///////// 18/14 Q1019
9:20 pm
V
64 °F 6¼ mi+ - 040° 040° 6 kt METAR EDWE 281920Z AUTO 04006KT 9999 // ///////// 18/14 Q1019
8:50 pm
V
66 °F 6¼ mi+ - 050° 050° 7 kt METAR EDWE 281850Z AUTO 05007KT 9999 // ///////// 19/13 Q1019
8:20 pm
V
68 °F 6¼ mi+ - 070° 070° 6 kt METAR EDWE 281820Z 07006KT 020V110 9999 FEW028 20/13 Q1019
7:50 pm
V
70 °F 6¼ mi+ - 150° 150° 4 kt METAR EDWE 281750Z 15004KT 120V200 9999 FEW048 21/10 Q1019
7:20 pm
V
72 °F 6¼ mi+ - 130° 130° 4 kt METAR EDWE 281720Z 13004KT 100V160 9999 CAVOK 22/10 Q1019
6:50 pm
V
72 °F 6¼ mi+ - Var Var 4 kt METAR EDWE 281650Z VRB04KT 9999 CAVOK 22/09 Q1019
6:20 pm
V
72 °F 6¼ mi+ - Var Var 4 kt METAR EDWE 281620Z VRB04KT 9999 FEW048 22/10 Q1019
5:50 pm
V
72 °F 6¼ mi+ - 180° 180° 6 kt METAR EDWE 281550Z 18006KT 110V230 9999 SCT048 22/09 Q1020
4:50 pm
V
72 °F 6¼ mi+ - 170° 170° 8 kt METAR EDWE 281450Z 17008KT 120V220 9999 SCT046 22/11 Q1020
Données plus anciennes

Télécharge notre application

Un accès facile à toute la météo aéronautique sur ton téléphone portable et ta tablette.
Avec de nombreuses fonctionnalités non disponibles sur le site Web, comme la prise en charge hors ligne et une liste personnelle d'aéroports.

Nous et des tiers suivons ton comportement sur Internet sur notre site Web à l'aide de cookies. Si tu continues, nous supposons que tu acceptes notre politique en matière de cookies. Apprendre plus